Aérodrome :
LOGIN :

S'inscrire | Disclaimer

   EN    FR    IT 

 










Légende :    VFR   VFR Marginal   IFR   IFR Intensif   IFR Très Intensif
Visi : 
Plafond : 
>= 8 km
>= 3000ft
5 à 8 km
1000 à 3000 ft
1500m à 5 km
500 à 1000 ft
800 à 1500m
200 à 500 ft
< 800m
< 200 ft
Symboles :   Orages  Brouillard  Fortes neiges  Fortes précipitations  Vent > 20 kt
SIGMETs :   Divers  Orages  Givrage  Turbulence  Onde Orograph.  Cendres Volcan.







- Altitude de l'aérodrome : 72 ft
- Code IATA : UDE


EHVK - Volkel Airbase

DERNIER METAR :
  • 210425Z AUTO 26006KT 9999 NCD 01/M00 Q1010 BLU RMK CB INFO NOT AVBL

METARs EXPIRÉS :
  • 210355Z AUTO 27005KT 9999 SCT029/// 01/00 Q1009 BLU
  • 210338Z AUTO 27005KT 9999 FEW033 01/00 Q1009 BLU
  • 210325Z AUTO 26005KT 8000 BR NCD 01/00 Q1009 BLU
  • 210255Z AUTO 26005KT 6000 BR NCD 01/01 Q1008 WHT
  • 210225Z AUTO 26006KT 5000 BR NCD 02/01 Q1008 WHT
  • 210204Z AUTO 27005KT 7000 BR NCD 02/01 Q1008 WHT
  • 210155Z AUTO 26006KT 7000 BR FEW028 SCT031 02/01 Q1008 WHT
  • 210139Z AUTO 27005KT 250V310 9000 BR FEW026 BKN029 02/01 Q1007 BLU
  • 210126Z AUTO 27004KT 5000 BR NCD 02/01 Q1007 WHT

Prévision TAF périmée.
Pas de NOTAMs connus pour ce terrain.
1 SIGMET publié pour la FIR Amsterdam (EHAA) :
 
Turbulence forte
EHAA SIGMET 2 VALID 202230/202400 EHDB
EHAA AMSTERDAM FIR SEV TURB FCST WI N5415 E00418 - N5155 E00644 - N5121 E00424 - N5254 E00312 - N5415 E00418 FL180/330 MOV ESE 30KT NC=



MET'MAP, la Météo Aéronautique d'un coup d'oeil ! - Copyright ORBIFLY Décembre 2007 - Disclaimer

ORBIFLY MET'MAP TEAM :

Programmation & Développement : Alexandra Zaïnal
Conception & Développement : Baudouin d'Aumeries
Co-Programmation & Développement : Marc-Olivier Méhu
Soutien technique & logistique : Manuel Goepfert

Contact : metmap@orbifly.com




SOURCES & CREDITS :

   NOAA